Time;durP1;ratioP1;P1;durP2;ratioP2;P2;SDS_P1;SDS_P2;PMS_P1;PMS_P2;Temp;Humidity;BMP_temperature;BMP_pressure;BME280_temperature;BME280_humidity;BME280_pressure;Samples;Min_cycle;Max_cycle;Signal;HPM_P1;HPM_P2
2022/01/10 00:00:14;;;;;;;1.58;0.40;;;;;;;;;;5038148;28;20168;-75
2022/01/10 00:02:44;;;;;;;3.55;0.57;;;;;;;;;;5055494;28;20451;-72
2022/01/10 00:05:12;;;;;;;1.10;0.20;;;;;;;;;;5055883;28;20045;-75
2022/01/10 00:07:40;;;;;;;1.45;0.47;;;;;;;;;;5037974;28;20045;-70
2022/01/10 00:10:08;;;;;;;4.20;0.55;;;;;;;;;;5055558;28;20052;-70
2022/01/10 00:12:36;;;;;;;2.17;0.47;;;;;;;;;;5055862;28;20044;-71
2022/01/10 00:15:04;;;;;;;1.70;0.60;;;;;;;;;;5055651;28;20045;-70
2022/01/10 00:17:32;;;;;;;1.83;0.25;;;;;;;;;;5037894;28;20041;-71
2022/01/10 00:19:59;;;;;;;0.98;0.30;;;;;;;;;;5055066;28;20124;-70
2022/01/10 00:22:28;;;;;;;1.45;0.50;;;;;;;;;;5054696;28;20041;-76
2022/01/10 00:24:55;;;;;;;2.65;0.50;;;;;;;;;;5054582;28;20497;-71
2022/01/10 00:27:23;;;;;;;0.77;0.50;;;;;;;;;;5054864;28;20479;-71
2022/01/10 00:29:51;;;;;;;1.38;0.40;;;;;;;;;;5054949;28;20080;-72
2022/01/10 00:32:19;;;;;;;3.10;0.50;;;;;;;;;;5037351;28;20049;-77
2022/01/10 00:34:47;;;;;;;4.03;0.93;;;;;;;;;;5055425;28;20047;-71
2022/01/10 00:37:14;;;;;;;1.90;0.45;;;;;;;;;;5055033;28;20060;-71
2022/01/10 00:39:42;;;;;;;3.42;0.65;;;;;;;;;;5037068;28;20416;-76
2022/01/10 00:42:10;;;;;;;2.75;0.85;;;;;;;;;;5037591;28;20064;-71
2022/01/10 00:44:44;;;;;;;5.03;0.47;;;;;;;;;;5054148;28;20044;-71
2022/01/10 00:47:12;;;;;;;3.13;0.45;;;;;;;;;;5055279;28;20119;-71
2022/01/10 00:49:40;;;;;;;1.42;0.30;;;;;;;;;;5020545;28;20041;-78
2022/01/10 00:52:07;;;;;;;6.05;0.70;;;;;;;;;;5020765;28;20053;-77
2022/01/10 00:54:38;;;;;;;1.70;0.40;;;;;;;;;;5054761;28;20048;-77
2022/01/10 00:57:07;;;;;;;4.13;0.65;;;;;;;;;;5054878;28;20447;-70
2022/01/10 00:59:35;;;;;;;5.18;0.55;;;;;;;;;;5036762;28;20047;-77
2022/01/10 01:02:04;;;;;;;1.88;0.52;;;;;;;;;;5036726;28;20148;-77
2022/01/10 01:04:35;;;;;;;4.05;0.70;;;;;;;;;;5054654;28;20102;-77
2022/01/10 01:07:03;;;;;;;0.43;0.28;;;;;;;;;;5037121;28;20081;-72
2022/01/10 01:09:31;;;;;;;2.08;0.50;;;;;;;;;;5054853;28;20373;-76
2022/01/10 01:20:27;;;;;;;3.35;0.55;;;;;;;;;;5036659;28;20131;-78
2022/01/10 01:25:38;;;;;;;2.85;0.50;;;;;;;;;;5036033;28;20091;-71
2022/01/10 01:28:07;;;;;;;6.40;0.60;;;;;;;;;;5036172;28;20049;-71
2022/01/10 01:30:34;;;;;;;2.63;0.45;;;;;;;;;;5036820;28;20556;-77
2022/01/10 01:33:02;;;;;;;3.70;0.40;;;;;;;;;;5045479;28;20048;-71
2022/01/10 01:35:30;;;;;;;2.75;0.70;;;;;;;;;;5054465;28;20165;-77
2022/01/10 01:37:58;;;;;;;2.00;0.30;;;;;;;;;;5035933;28;20408;-77
2022/01/10 01:40:29;;;;;;;1.50;0.40;;;;;;;;;;5030290;28;20078;-71
2022/01/10 01:42:57;;;;;;;1.77;0.63;;;;;;;;;;5054110;28;20041;-77
2022/01/10 01:45:46;;;;;;;2.75;0.50;;;;;;;;;;5036307;28;20045;-77
2022/01/10 01:48:14;;;;;;;0.95;0.47;;;;;;;;;;5035862;28;20037;-76
2022/01/10 01:50:42;;;;;;;0.68;0.32;;;;;;;;;;5035879;28;20049;-77
2022/01/10 01:53:11;;;;;;;2.55;0.30;;;;;;;;;;5036326;28;20047;-78
2022/01/10 01:55:39;;;;;;;2.35;0.65;;;;;;;;;;5035682;28;20044;-77
2022/01/10 01:58:08;;;;;;;2.75;0.40;;;;;;;;;;5036180;28;20065;-71
2022/01/10 02:00:36;;;;;;;1.92;0.47;;;;;;;;;;5035827;28;20049;-76
2022/01/10 02:03:05;;;;;;;1.98;0.50;;;;;;;;;;5035640;28;20043;-71
2022/01/10 02:05:34;;;;;;;2.50;0.70;;;;;;;;;;5019816;28;20048;-70
2022/01/10 02:08:02;;;;;;;1.48;0.45;;;;;;;;;;5035809;28;20055;-71
2022/01/10 02:10:30;;;;;;;1.52;0.40;;;;;;;;;;5019472;28;20155;-77
2022/01/10 02:12:58;;;;;;;1.45;0.30;;;;;;;;;;5019366;28;20487;-71
2022/01/10 02:15:34;;;;;;;2.58;0.52;;;;;;;;;;5031185;28;20049;-71
2022/01/10 02:18:07;;;;;;;1.30;0.35;;;;;;;;;;5015757;28;20473;-76
2022/01/10 02:20:35;;;;;;;0.30;0.30;;;;;;;;;;5032044;28;20091;-76
2022/01/10 02:23:04;;;;;;;1.52;0.40;;;;;;;;;;5028847;28;20065;-71
2022/01/10 02:26:04;;;;;;;4.20;0.40;;;;;;;;;;5022162;28;20056;-77
2022/01/10 02:28:35;;;;;;;0.22;0.20;;;;;;;;;;4999512;28;20049;-78
2022/01/10 02:31:03;;;;;;;0.50;0.22;;;;;;;;;;5033146;28;20038;-72
2022/01/10 02:33:31;;;;;;;1.40;0.60;;;;;;;;;;5015931;28;20053;-77
2022/01/10 02:38:53;;;;;;;1.10;0.40;;;;;;;;;;5031664;28;20041;-78
2022/01/10 02:41:31;;;;;;;1.60;0.50;;;;;;;;;;5031836;28;20049;-70
2022/01/10 02:44:02;;;;;;;0.80;0.25;;;;;;;;;;5015659;28;20045;-72
2022/01/10 02:46:32;;;;;;;0.70;0.28;;;;;;;;;;5032028;28;20056;-77
2022/01/10 02:49:00;;;;;;;0.73;0.25;;;;;;;;;;5031698;28;20155;-78
2022/01/10 02:51:28;;;;;;;1.55;0.40;;;;;;;;;;5015675;28;20048;-77
2022/01/10 02:53:56;;;;;;;2.80;0.30;;;;;;;;;;5031890;28;20041;-78
2022/01/10 02:56:23;;;;;;;0.68;0.20;;;;;;;;;;5033099;28;20065;-74
2022/01/10 02:58:51;;;;;;;1.45;0.38;;;;;;;;;;5015177;28;20060;-70
2022/01/10 03:01:19;;;;;;;0.15;0.10;;;;;;;;;;5031463;28;20419;-72
2022/01/10 03:03:48;;;;;;;2.45;0.60;;;;;;;;;;5031616;28;20095;-76
2022/01/10 03:06:16;;;;;;;0.85;0.30;;;;;;;;;;5015365;28;20052;-71
2022/01/10 03:08:43;;;;;;;2.60;0.70;;;;;;;;;;5036476;28;20048;-77
2022/01/10 03:11:11;;;;;;;2.55;1.40;;;;;;;;;;5035803;28;20054;-71
2022/01/10 03:13:39;;;;;;;1.83;0.82;;;;;;;;;;5035470;28;20497;-70
2022/01/10 03:16:06;;;;;;;3.65;0.38;;;;;;;;;;5035417;28;20128;-71
2022/01/10 03:18:35;;;;;;;0.98;0.47;;;;;;;;;;5036795;28;20041;-76
2022/01/10 03:21:03;;;;;;;0.68;0.30;;;;;;;;;;5035481;28;20202;-76
2022/01/10 03:23:31;;;;;;;0.22;0.20;;;;;;;;;;5035350;28;20053;-77
2022/01/10 03:26:00;;;;;;;0.30;0.30;;;;;;;;;;5036793;28;20057;-72
2022/01/10 03:28:28;;;;;;;2.63;0.30;;;;;;;;;;5035275;28;20052;-76
2022/01/10 03:30:55;;;;;;;2.83;0.77;;;;;;;;;;5018723;28;20034;-76
2022/01/10 03:33:23;;;;;;;0.35;0.20;;;;;;;;;;5018739;28;20050;-71
2022/01/10 03:35:50;;;;;;;1.58;0.30;;;;;;;;;;5035212;28;20519;-77
2022/01/10 03:38:18;;;;;;;1.23;0.20;;;;;;;;;;5018150;28;20060;-76
2022/01/10 03:40:46;;;;;;;0.60;0.60;;;;;;;;;;5034946;28;20044;-72
2022/01/10 03:43:19;;;;;;;1.50;1.40;;;;;;;;;;5018441;28;20037;-76
2022/01/10 03:45:46;;;;;;;4.90;2.72;;;;;;;;;;5034830;28;20292;-77
2022/01/10 03:48:15;;;;;;;8.70;5.10;;;;;;;;;;5018422;28;20046;-70
2022/01/10 03:50:43;;;;;;;10.40;4.90;;;;;;;;;;5034528;28;20050;-70
2022/01/10 03:53:14;;;;;;;5.72;3.40;;;;;;;;;;5034437;28;20103;-71
2022/01/10 03:55:43;;;;;;;7.63;1.58;;;;;;;;;;5034353;28;20049;-70
2022/01/10 03:58:12;;;;;;;4.85;1.27;;;;;;;;;;5015017;28;20046;-71
2022/01/10 04:00:40;;;;;;;4.20;2.58;;;;;;;;;;4987080;28;20046;-71
2022/01/10 04:03:07;;;;;;;1.10;1.00;;;;;;;;;;5047371;28;20107;-70
2022/01/10 04:05:58;;;;;;;4.57;1.00;;;;;;;;;;5033553;28;20562;-71
2022/01/10 04:08:27;;;;;;;2.65;0.70;;;;;;;;;;5055398;28;20107;-77
2022/01/10 04:10:54;;;;;;;1.23;0.60;;;;;;;;;;5055721;28;20045;-70
2022/01/10 04:13:23;;;;;;;2.50;0.90;;;;;;;;;;5037910;28;20048;-70
2022/01/10 04:15:51;;;;;;;2.08;1.35;;;;;;;;;;5037583;28;20076;-71
2022/01/10 04:18:19;;;;;;;2.65;1.65;;;;;;;;;;5037127;28;20044;-71
2022/01/10 04:20:48;;;;;;;4.97;2.45;;;;;;;;;;5055613;28;20037;-71
2022/01/10 04:23:17;;;;;;;5.28;2.60;;;;;;;;;;5007809;28;20049;-71
2022/01/10 04:25:45;;;;;;;4.03;2.05;;;;;;;;;;5017290;28;20095;-76
2022/01/10 04:28:14;;;;;;;7.40;2.58;;;;;;;;;;5017991;28;20049;-76
2022/01/10 04:30:42;;;;;;;2.55;1.65;;;;;;;;;;5017782;28;20050;-71
2022/01/10 04:33:16;;;;;;;4.25;2.40;;;;;;;;;;5017432;28;20069;-77
2022/01/10 04:35:44;;;;;;;7.30;2.65;;;;;;;;;;5017383;28;20088;-71
2022/01/10 04:38:13;;;;;;;6.57;2.95;;;;;;;;;;5017034;28;20404;-71
2022/01/10 04:40:40;;;;;;;5.68;3.00;;;;;;;;;;5017643;28;20054;-77
2022/01/10 04:43:11;;;;;;;5.70;3.40;;;;;;;;;;5035089;28;20483;-70
2022/01/10 04:45:39;;;;;;;6.70;3.13;;;;;;;;;;5017633;28;20521;-76
2022/01/10 04:48:07;;;;;;;6.38;2.78;;;;;;;;;;5017527;28;20049;-76
2022/01/10 04:53:11;;;;;;;5.85;2.53;;;;;;;;;;5017646;28;20057;-70
2022/01/10 04:55:39;;;;;;;6.53;3.30;;;;;;;;;;5016878;28;20056;-71
2022/01/10 04:58:07;;;;;;;12.52;3.80;;;;;;;;;;5033799;28;20045;-71
2022/01/10 05:00:35;;;;;;;7.82;3.40;;;;;;;;;;5016735;28;20132;-71
2022/01/10 05:03:02;;;;;;;3.88;2.38;;;;;;;;;;5017096;28;20052;-76
2022/01/10 05:05:33;;;;;;;2.67;1.67;;;;;;;;;;5016969;28;20045;-71
2022/01/10 05:08:01;;;;;;;1.92;1.27;;;;;;;;;;5016495;28;20141;-71
2022/01/10 05:10:30;;;;;;;3.05;1.27;;;;;;;;;;5016846;28;20424;-71
2022/01/10 05:12:57;;;;;;;3.60;1.30;;;;;;;;;;5016944;28;20045;-71
2022/01/10 05:15:25;;;;;;;3.10;0.98;;;;;;;;;;5000240;28;20138;-77
2022/01/10 05:17:52;;;;;;;2.63;0.73;;;;;;;;;;5000837;28;20053;-77
2022/01/10 05:20:21;;;;;;;2.97;1.00;;;;;;;;;;5033310;28;20401;-76
2022/01/10 05:22:52;;;;;;;3.22;0.82;;;;;;;;;;5045041;28;20049;-71
2022/01/10 05:25:20;;;;;;;2.47;1.23;;;;;;;;;;5053970;28;20045;-77
2022/01/10 05:27:47;;;;;;;1.13;0.73;;;;;;;;;;5036504;28;20045;-70
2022/01/10 05:30:15;;;;;;;2.22;0.60;;;;;;;;;;5036025;28;20459;-76
2022/01/10 05:32:44;;;;;;;3.22;0.50;;;;;;;;;;5036474;28;20134;-71
2022/01/10 05:35:31;;;;;;;3.42;1.60;;;;;;;;;;5035833;28;20041;-76
2022/01/10 05:37:59;;;;;;;1.58;0.68;;;;;;;;;;5053992;28;20069;-70
2022/01/10 05:40:27;;;;;;;2.83;0.98;;;;;;;;;;5036615;28;20522;-71
2022/01/10 05:42:54;;;;;;;5.32;2.10;;;;;;;;;;5020040;28;20040;-76
2022/01/10 05:45:26;;;;;;;12.25;4.20;;;;;;;;;;5036046;28;20051;-71
2022/01/10 05:47:53;;;;;;;13.73;6.18;;;;;;;;;;5054035;28;20040;-70
2022/01/10 05:50:33;;;;;;;12.48;5.32;;;;;;;;;;5035534;28;20076;-76
2022/01/10 05:53:03;;;;;;;6.82;4.13;;;;;;;;;;5051462;28;20072;-77
2022/01/10 05:55:37;;;;;;;7.55;3.90;;;;;;;;;;5052710;28;20579;-76
2022/01/10 05:58:10;;;;;;;7.40;3.47;;;;;;;;;;5034403;28;20055;-78
2022/01/10 06:00:40;;;;;;;7.55;3.22;;;;;;;;;;5034818;28;20041;-70
2022/01/10 06:03:08;;;;;;;5.20;2.03;;;;;;;;;;5053298;28;20052;-77
2022/01/10 06:05:44;;;;;;;5.93;2.78;;;;;;;;;;5036031;28;20057;-77
2022/01/10 06:08:13;;;;;;;2.80;2.47;;;;;;;;;;5035761;28;20056;-77
2022/01/10 06:10:43;;;;;;;4.22;2.85;;;;;;;;;;5035584;28;20415;-77
2022/01/10 06:13:35;;;;;;;5.68;2.50;;;;;;;;;;5035074;28;20053;-77
2022/01/10 06:16:05;;;;;;;22.73;8.48;;;;;;;;;;5051717;28;20040;-71
2022/01/10 06:18:40;;;;;;;16.13;7.68;;;;;;;;;;5035291;28;20063;-77
2022/01/10 06:21:08;;;;;;;5.85;3.03;;;;;;;;;;5035494;28;20063;-72
2022/01/10 06:23:36;;;;;;;9.32;1.50;;;;;;;;;;5035164;28;20072;-71
2022/01/10 06:26:04;;;;;;;1.13;0.88;;;;;;;;;;5018699;28;20051;-77
2022/01/10 06:28:33;;;;;;;1.58;1.10;;;;;;;;;;5035068;28;20538;-78
2022/01/10 06:31:03;;;;;;;1.13;0.77;;;;;;;;;;5052370;28;20044;-77
2022/01/10 06:33:40;;;;;;;2.53;1.42;;;;;;;;;;5034917;28;20051;-77
2022/01/10 06:36:09;;;;;;;3.50;1.48;;;;;;;;;;5033367;28;20040;-77
2022/01/10 06:38:41;;;;;;;1.20;0.90;;;;;;;;;;5034175;28;20041;-71
2022/01/10 06:41:10;;;;;;;2.00;0.90;;;;;;;;;;5034814;28;20048;-77
2022/01/10 06:43:39;;;;;;;2.40;2.20;;;;;;;;;;5034791;28;20037;-72
2022/01/10 06:46:10;;;;;;;3.60;0.90;;;;;;;;;;5019391;28;20049;-71
2022/01/10 06:48:41;;;;;;;5.93;2.08;;;;;;;;;;5035170;28;20049;-71
2022/01/10 06:51:08;;;;;;;8.65;1.35;;;;;;;;;;5034743;28;20207;-75
2022/01/10 06:53:38;;;;;;;4.38;1.48;;;;;;;;;;5034433;28;20045;-70
2022/01/10 06:56:06;;;;;;;2.85;1.35;;;;;;;;;;5050290;28;20408;-75
2022/01/10 06:58:36;;;;;;;1.48;1.30;;;;;;;;;;5034809;28;20430;-70
2022/01/10 07:01:07;;;;;;;3.65;1.50;;;;;;;;;;5034708;28;20436;-69
2022/01/10 07:03:36;;;;;;;5.65;1.33;;;;;;;;;;5034491;28;20518;-69
2022/01/10 07:06:13;;;;;;;2.13;1.50;;;;;;;;;;5034600;28;20074;-76
2022/01/10 07:08:42;;;;;;;5.22;1.80;;;;;;;;;;5034336;28;20051;-70
2022/01/10 07:11:10;;;;;;;4.95;1.40;;;;;;;;;;5034605;28;20753;-75
2022/01/10 07:13:41;;;;;;;5.78;1.35;;;;;;;;;;5034589;28;20103;-70
2022/01/10 07:16:09;;;;;;;4.55;1.40;;;;;;;;;;5034873;28;20056;-70
2022/01/10 07:18:37;;;;;;;6.03;2.25;;;;;;;;;;5034809;28;20207;-76
2022/01/10 07:21:14;;;;;;;6.63;3.22;;;;;;;;;;5034804;28;20497;-69
2022/01/10 07:23:44;;;;;;;8.50;3.63;;;;;;;;;;5034286;28;20045;-76
2022/01/10 07:26:11;;;;;;;6.35;4.13;;;;;;;;;;5052478;28;20519;-69
2022/01/10 07:28:39;;;;;;;5.45;3.33;;;;;;;;;;5051600;28;20052;-75
2022/01/10 07:31:10;;;;;;;8.13;3.45;;;;;;;;;;5052675;28;20043;-76
2022/01/10 07:33:38;;;;;;;5.65;3.33;;;;;;;;;;5051355;28;20047;-70
2022/01/10 07:36:06;;;;;;;3.92;2.15;;;;;;;;;;5052316;28;20120;-70
2022/01/10 07:38:36;;;;;;;5.22;2.03;;;;;;;;;;5051983;28;20107;-75
2022/01/10 07:41:05;;;;;;;7.18;3.08;;;;;;;;;;5044328;28;20048;-70
2022/01/10 07:43:33;;;;;;;7.35;3.15;;;;;;;;;;5052427;28;20037;-70
2022/01/10 07:46:03;;;;;;;5.80;3.03;;;;;;;;;;5047368;28;20060;-76
2022/01/10 07:48:33;;;;;;;6.20;2.97;;;;;;;;;;5024303;28;20460;-77
2022/01/10 07:51:01;;;;;;;6.40;2.97;;;;;;;;;;5042749;28;20442;-69
2022/01/10 07:53:30;;;;;;;6.60;2.50;;;;;;;;;;5042891;28;20041;-75
2022/01/10 07:56:00;;;;;;;4.78;2.42;;;;;;;;;;5044849;28;20041;-69
2022/01/10 07:58:27;;;;;;;3.88;2.03;;;;;;;;;;5046019;28;20091;-75
2022/01/10 08:00:55;;;;;;;2.72;1.48;;;;;;;;;;5047949;28;20048;-71
2022/01/10 08:03:23;;;;;;;3.20;2.08;;;;;;;;;;5055151;28;20029;-70
2022/01/10 08:05:51;;;;;;;1.15;1.00;;;;;;;;;;5055005;28;20568;-75
2022/01/10 08:08:19;;;;;;;2.20;0.82;;;;;;;;;;5055304;28;20040;-70
2022/01/10 08:10:47;;;;;;;3.63;0.77;;;;;;;;;;5055404;28;20044;-77
2022/01/10 08:13:14;;;;;;;2.38;0.93;;;;;;;;;;5037413;28;20451;-70
2022/01/10 08:15:42;;;;;;;1.10;0.80;;;;;;;;;;5036801;28;20067;-75
2022/01/10 08:18:12;;;;;;;3.80;1.20;;;;;;;;;;5054697;28;20044;-76
2022/01/10 08:20:40;;;;;;;1.88;1.02;;;;;;;;;;5054843;28;20037;-69
2022/01/10 08:23:11;;;;;;;1.55;1.00;;;;;;;;;;5052009;28;20044;-69
2022/01/10 08:25:39;;;;;;;3.35;1.10;;;;;;;;;;5054943;28;20377;-76
2022/01/10 08:28:06;;;;;;;2.47;1.08;;;;;;;;;;5054523;28;20411;-70
2022/01/10 08:30:34;;;;;;;2.65;1.20;;;;;;;;;;5054988;28;20046;-74
2022/01/10 08:33:02;;;;;;;2.92;1.33;;;;;;;;;;5044326;28;20037;-76
2022/01/10 08:35:33;;;;;;;4.47;1.92;;;;;;;;;;5054124;28;20489;-70
2022/01/10 08:38:01;;;;;;;3.65;1.40;;;;;;;;;;5054316;28;20120;-69
2022/01/10 08:40:31;;;;;;;2.72;1.27;;;;;;;;;;5054716;28;20404;-70
2022/01/10 08:43:02;;;;;;;2.97;1.52;;;;;;;;;;5054675;28;20047;-69
2022/01/10 08:45:29;;;;;;;3.60;1.67;;;;;;;;;;5037654;28;20121;-77
2022/01/10 08:47:57;;;;;;;10.07;1.73;;;;;;;;;;5055023;28;20037;-77
2022/01/10 08:50:26;;;;;;;3.65;1.52;;;;;;;;;;5054491;28;20049;-75
2022/01/10 08:52:54;;;;;;;8.93;3.90;;;;;;;;;;5055007;28;20120;-70
2022/01/10 08:55:22;;;;;;;11.43;4.55;;;;;;;;;;5036668;28;20048;-77
2022/01/10 08:57:50;;;;;;;7.95;4.10;;;;;;;;;;5033452;28;20465;-76
2022/01/10 09:00:17;;;;;;;6.72;4.18;;;;;;;;;;5032295;28;20046;-71
2022/01/10 09:02:45;;;;;;;4.43;2.05;;;;;;;;;;5033543;28;20034;-76
2022/01/10 09:05:12;;;;;;;4.25;1.67;;;;;;;;;;5033071;28;20037;-77
2022/01/10 09:07:40;;;;;;;4.32;1.70;;;;;;;;;;5034107;28;20049;-77
2022/01/10 09:10:08;;;;;;;3.38;1.70;;;;;;;;;;5034558;28;20038;-75
2022/01/10 09:12:38;;;;;;;6.68;3.78;;;;;;;;;;5035540;28;20041;-75
2022/01/10 09:15:06;;;;;;;3.40;1.67;;;;;;;;;;5033663;28;20124;-68
2022/01/10 09:17:34;;;;;;;3.25;1.70;;;;;;;;;;5033933;28;20428;-69
2022/01/10 09:20:02;;;;;;;2.20;1.30;;;;;;;;;;5025831;28;20128;-69
2022/01/10 09:22:30;;;;;;;6.13;2.03;;;;;;;;;;5033954;28;20061;-75
2022/01/10 09:25:00;;;;;;;5.43;2.05;;;;;;;;;;5034024;28;20096;-76
2022/01/10 09:27:27;;;;;;;6.10;1.10;;;;;;;;;;5015875;28;20073;-71
2022/01/10 09:29:55;;;;;;;1.83;0.90;;;;;;;;;;5033559;28;20337;-69
2022/01/10 09:32:22;;;;;;;7.10;2.40;;;;;;;;;;5033650;28;20040;-77
2022/01/10 09:34:50;;;;;;;1.42;1.13;;;;;;;;;;5033788;28;20041;-70
2022/01/10 09:37:17;;;;;;;2.88;1.08;;;;;;;;;;5015922;28;20121;-71
2022/01/10 09:39:45;;;;;;;1.92;0.95;;;;;;;;;;5033547;28;20049;-69
2022/01/10 09:42:15;;;;;;;2.55;0.80;;;;;;;;;;5016109;28;20057;-77
2022/01/10 09:44:43;;;;;;;3.40;0.73;;;;;;;;;;5033299;28;20451;-76
2022/01/10 09:47:10;;;;;;;2.33;0.90;;;;;;;;;;5033124;28;20473;-69
2022/01/10 09:49:39;;;;;;;3.05;1.15;;;;;;;;;;5034149;28;20044;-76
2022/01/10 09:52:07;;;;;;;4.03;1.77;;;;;;;;;;5023551;28;20115;-76
2022/01/10 09:54:35;;;;;;;5.75;1.58;;;;;;;;;;5018927;28;20051;-69
2022/01/10 09:57:03;;;;;;;2.67;1.38;;;;;;;;;;5043506;28;20038;-75
2022/01/10 09:59:30;;;;;;;1.33;0.80;;;;;;;;;;5029731;28;20046;-70
2022/01/10 10:02:00;;;;;;;2.22;0.80;;;;;;;;;;5044159;28;20120;-75
2022/01/10 10:04:28;;;;;;;6.30;1.20;;;;;;;;;;5044155;28;20043;-76
2022/01/10 10:06:57;;;;;;;3.05;0.90;;;;;;;;;;5024155;28;20053;-76
2022/01/10 10:09:25;;;;;;;0.70;0.68;;;;;;;;;;5042152;28;20040;-76
2022/01/10 10:11:53;;;;;;;1.33;0.70;;;;;;;;;;5039403;28;20044;-76
2022/01/10 10:14:22;;;;;;;1.67;0.90;;;;;;;;;;5041767;28;20051;-76
2022/01/10 10:16:55;;;;;;;1.65;0.80;;;;;;;;;;5041949;28;20041;-69
2022/01/10 10:19:28;;;;;;;1.75;0.60;;;;;;;;;;5021052;28;20552;-76
2022/01/10 10:21:57;;;;;;;1.83;0.90;;;;;;;;;;5131725;22;20060;-77
2022/01/10 10:24:26;;;;;;;0.82;0.73;;;;;;;;;;5071740;28;20047;-76
2022/01/10 10:26:53;;;;;;;0.65;0.57;;;;;;;;;;5071834;28;20053;-76
2022/01/10 10:29:26;;;;;;;;;;;;;;;;;;5072012;28;20134;-71
2022/01/10 10:31:57;;;;;;;1.45;0.75;;;;;;;;;;5072152;28;19928;-76
2022/01/10 10:34:29;;;;;;;1.90;0.90;;;;;;;;;;5072389;28;20123;-69
2022/01/10 10:37:07;;;;;;;4.13;1.20;;;;;;;;;;5072046;28;20083;-70
2022/01/10 10:39:36;;;;;;;1.38;1.08;;;;;;;;;;5072042;28;20090;-77
2022/01/10 10:42:08;;;;;;;1.90;1.00;;;;;;;;;;5054499;28;20044;-76
2022/01/10 10:44:35;;;;;;;0.88;0.63;;;;;;;;;;5072088;28;20052;-77
2022/01/10 10:47:03;;;;;;;1.95;0.50;;;;;;;;;;5054312;28;20487;-76
2022/01/10 10:49:37;;;;;;;0.90;0.45;;;;;;;;;;5071736;28;20037;-70
2022/01/10 10:52:06;;;;;;;0.50;0.50;;;;;;;;;;5070326;28;20069;-77
2022/01/10 10:54:36;;;;;;;1.00;0.77;;;;;;;;;;5072171;28;20048;-78
2022/01/10 10:57:04;;;;;;;0.40;0.40;;;;;;;;;;5071875;28;20041;-71
2022/01/10 10:59:35;;;;;;;1.30;0.70;;;;;;;;;;5071850;28;20408;-77
2022/01/10 11:02:04;;;;;;;0.55;0.50;;;;;;;;;;5071810;28;20050;-77
2022/01/10 11:04:34;;;;;;;1.02;0.98;;;;;;;;;;5067619;28;20044;-76
2022/01/10 11:07:03;;;;;;;2.13;1.88;;;;;;;;;;5041090;28;20041;-80
2022/01/10 11:09:51;;;;;;;2.30;1.35;;;;;;;;;;5034151;28;20416;-70
2022/01/10 11:12:24;;;;;;;2.28;1.20;;;;;;;;;;5058569;28;20099;-70
2022/01/10 11:14:56;;;;;;;3.13;2.53;;;;;;;;;;5062437;28;20142;-76
2022/01/10 11:17:25;;;;;;;2.67;2.28;;;;;;;;;;5062030;28;20049;-78
2022/01/10 11:20:08;;;;;;;1.80;1.70;;;;;;;;;;5060306;28;20048;-76
2022/01/10 11:22:43;;;;;;;1.00;0.90;;;;;;;;;;5042965;28;20041;-76
2022/01/10 11:25:20;;;;;;;0.50;0.50;;;;;;;;;;5060521;28;20119;-76
2022/01/10 11:27:53;;;;;;;0.90;0.63;;;;;;;;;;5060485;28;20825;-70
2022/01/10 11:30:26;;;;;;;1.50;0.63;;;;;;;;;;5064678;28;20052;-70
2022/01/10 11:32:57;;;;;;;0.63;0.60;;;;;;;;;;5046426;28;20480;-69
2022/01/10 11:35:51;;;;;;;1.55;0.82;;;;;;;;;;5050526;28;20044;-75
2022/01/10 11:38:24;;;;;;;0.40;0.40;;;;;;;;;;5064160;28;20041;-76
2022/01/10 11:40:53;;;;;;;3.92;0.80;;;;;;;;;;5046555;28;20040;-70
2022/01/10 11:43:30;;;;;;;1.13;0.70;;;;;;;;;;5065676;28;20048;-76
2022/01/10 11:46:22;;;;;;;1.25;1.02;;;;;;;;;;5066276;28;20369;-71
2022/01/10 11:48:50;;;;;;;1.20;0.85;;;;;;;;;;5065711;28;20125;-70
2022/01/10 11:51:34;;;;;;;0.90;0.52;;;;;;;;;;5064013;28;20033;-77
2022/01/10 11:54:08;;;;;;;7.67;1.13;;;;;;;;;;5049473;28;20115;-69
2022/01/10 11:56:36;;;;;;;4.10;0.93;;;;;;;;;;5046708;28;20479;-70
2022/01/10 11:59:12;;;;;;;1.48;0.60;;;;;;;;;;5065616;28;20040;-76
2022/01/10 12:01:41;;;;;;;1.70;0.70;;;;;;;;;;5066026;28;20051;-70
2022/01/10 12:04:09;;;;;;;2.97;0.77;;;;;;;;;;5064969;28;20052;-70
2022/01/10 12:06:36;;;;;;;2.10;0.40;;;;;;;;;;5063634;28;20116;-75
2022/01/10 12:09:04;;;;;;;2.78;2.03;;;;;;;;;;5065435;28;20048;-68
2022/01/10 12:11:33;;;;;;;4.00;1.90;;;;;;;;;;5047623;28;20044;-73
2022/01/10 12:14:02;;;;;;;0.55;0.55;;;;;;;;;;5066066;28;20055;-74
2022/01/10 12:16:30;;;;;;;5.55;2.38;;;;;;;;;;5062240;28;20407;-69
2022/01/10 12:18:58;;;;;;;1.05;0.70;;;;;;;;;;5050566;28;20048;-68
2022/01/10 12:21:26;;;;;;;4.45;1.67;;;;;;;;;;5062101;28;20045;-68
2022/01/10 12:23:56;;;;;;;0.65;0.60;;;;;;;;;;5059317;28;20056;-68
2022/01/10 12:26:24;;;;;;;0.80;0.65;;;;;;;;;;5062088;28;20434;-74
2022/01/10 12:28:54;;;;;;;0.98;0.70;;;;;;;;;;5063792;28;20118;-76
2022/01/10 12:31:22;;;;;;;1.15;0.32;;;;;;;;;;5068196;28;20442;-77
2022/01/10 12:33:51;;;;;;;0.77;0.52;;;;;;;;;;5064214;28;20053;-71
2022/01/10 12:36:22;;;;;;;0.70;0.50;;;;;;;;;;5060403;28;20045;-70
2022/01/10 12:38:51;;;;;;;1.58;0.70;;;;;;;;;;5064223;28;20251;-70
2022/01/10 12:41:20;;;;;;;0.50;0.50;;;;;;;;;;5046891;28;20044;-76
2022/01/10 12:43:48;;;;;;;0.68;0.60;;;;;;;;;;5052766;28;20056;-71
2022/01/10 12:46:17;;;;;;;1.08;0.60;;;;;;;;;;5057587;28;20091;-70
2022/01/10 12:48:46;;;;;;;1.13;0.55;;;;;;;;;;5060959;28;20049;-77
2022/01/10 12:51:15;;;;;;;0.70;0.70;;;;;;;;;;5065522;28;20053;-78
2022/01/10 12:54:01;;;;;;;0.52;0.52;;;;;;;;;;5073671;28;20094;-69
2022/01/10 12:56:29;;;;;;;0.52;0.50;;;;;;;;;;5074509;28;20052;-70
2022/01/10 12:58:57;;;;;;;0.70;0.40;;;;;;;;;;5074937;28;20403;-69
2022/01/10 13:01:25;;;;;;;1.90;0.65;;;;;;;;;;5074689;28;20036;-70
2022/01/10 13:03:56;;;;;;;0.98;0.50;;;;;;;;;;5074688;28;20043;-78
2022/01/10 13:06:26;;;;;;;0.40;0.38;;;;;;;;;;5074962;28;20033;-78
2022/01/10 13:08:55;;;;;;;0.80;0.20;;;;;;;;;;5056925;28;20068;-70
2022/01/10 13:11:29;;;;;;;0.93;0.30;;;;;;;;;;5075014;28;20036;-76
2022/01/10 13:14:09;;;;;;;1.55;0.40;;;;;;;;;;5074761;28;20049;-78
2022/01/10 13:16:37;;;;;;;0.65;0.60;;;;;;;;;;5074370;28;20083;-78
2022/01/10 13:19:16;;;;;;;0.20;0.20;;;;;;;;;;5056817;28;20040;-76
2022/01/10 13:21:49;;;;;;;0.32;0.30;;;;;;;;;;5074287;28;20472;-70
2022/01/10 13:24:18;;;;;;;1.10;0.30;;;;;;;;;;5074368;28;20071;-75
2022/01/10 13:26:56;;;;;;;0.80;0.47;;;;;;;;;;5072465;28;20039;-75
2022/01/10 13:29:35;;;;;;;11.10;0.93;;;;;;;;;;5041689;28;20079;-75
2022/01/10 13:32:24;;;;;;;1.88;0.50;;;;;;;;;;5063138;28;20048;-68
2022/01/10 13:35:13;;;;;;;0.57;0.35;;;;;;;;;;5064141;28;20111;-74
2022/01/10 13:37:45;;;;;;;1.45;0.50;;;;;;;;;;5062869;28;20083;-68
2022/01/10 13:40:16;;;;;;;1.23;0.45;;;;;;;;;;5061849;28;20037;-68
2022/01/10 13:42:51;;;;;;;0.75;0.50;;;;;;;;;;5062728;28;20036;-68
2022/01/10 13:45:22;;;;;;;1.42;0.40;;;;;;;;;;5061996;28;20035;-68
2022/01/10 13:47:55;;;;;;;1.33;0.45;;;;;;;;;;5064520;28;20049;-73
2022/01/10 13:50:23;;;;;;;;;;;;;;;;;;5073110;28;20139;-69
2022/01/10 13:53:08;;;;;;;0.93;0.40;;;;;;;;;;5073262;28;19925;-75
2022/01/10 13:55:37;;;;;;;0.50;0.50;;;;;;;;;;5073179;28;20381;-75
2022/01/10 13:58:09;;;;;;;0.50;0.50;;;;;;;;;;5073379;28;20037;-69
2022/01/10 14:00:38;;;;;;;2.10;0.80;;;;;;;;;;5073403;28;20067;-70
2022/01/10 14:03:06;;;;;;;4.10;1.02;;;;;;;;;;5072999;28;20036;-75
2022/01/10 14:05:33;;;;;;;2.03;0.50;;;;;;;;;;5073086;28;20426;-76
2022/01/10 14:08:02;;;;;;;0.85;0.40;;;;;;;;;;5072985;28;20495;-70
2022/01/10 14:10:30;;;;;;;3.05;0.50;;;;;;;;;;5073234;28;20162;-71
2022/01/10 14:12:58;;;;;;;3.72;0.60;;;;;;;;;;5072914;28;20430;-70
2022/01/10 14:15:27;;;;;;;2.30;0.40;;;;;;;;;;5072933;28;20068;-74
2022/01/10 14:18:00;;;;;;;0.80;0.55;;;;;;;;;;5069955;28;20040;-70
2022/01/10 14:20:28;;;;;;;0.60;0.60;;;;;;;;;;5055593;28;20044;-70
2022/01/10 14:22:55;;;;;;;8.68;1.02;;;;;;;;;;5061182;28;20046;-75
2022/01/10 14:25:23;;;;;;;1.25;0.82;;;;;;;;;;5052659;28;20044;-75
2022/01/10 14:27:51;;;;;;;1.15;0.60;;;;;;;;;;5034389;28;20136;-71
2022/01/10 14:30:19;;;;;;;1.42;1.00;;;;;;;;;;5052779;28;20044;-77
2022/01/10 14:32:49;;;;;;;3.63;0.80;;;;;;;;;;5052574;28;20073;-76
2022/01/10 14:35:17;;;;;;;2.05;1.10;;;;;;;;;;5034699;28;20057;-77
2022/01/10 14:37:44;;;;;;;1.58;0.90;;;;;;;;;;5052043;28;20041;-76
2022/01/10 14:40:13;;;;;;;1.55;0.85;;;;;;;;;;5052554;28;20043;-69
2022/01/10 14:42:41;;;;;;;1.52;1.00;;;;;;;;;;5052347;28;20045;-69
2022/01/10 14:45:10;;;;;;;1.40;1.30;;;;;;;;;;5052680;28;20044;-76
2022/01/10 14:47:41;;;;;;;2.05;0.70;;;;;;;;;;5052672;28;20436;-69
2022/01/10 14:50:09;;;;;;;2.22;1.70;;;;;;;;;;5052356;28;20120;-69
2022/01/10 14:52:39;;;;;;;1.15;0.95;;;;;;;;;;5052268;28;20041;-76
2022/01/10 14:55:10;;;;;;;5.28;1.60;;;;;;;;;;5034563;28;20044;-70
2022/01/10 14:57:40;;;;;;;1.83;1.15;;;;;;;;;;5052351;28;20037;-70
2022/01/10 15:00:08;;;;;;;4.50;1.00;;;;;;;;;;5052395;28;20037;-76
2022/01/10 15:02:36;;;;;;;1.65;0.95;;;;;;;;;;5052161;28;20075;-70
2022/01/10 15:05:04;;;;;;;0.80;0.80;;;;;;;;;;5038437;28;20333;-75
2022/01/10 15:07:32;;;;;;;2.70;0.80;;;;;;;;;;5056440;28;20068;-76
2022/01/10 15:10:00;;;;;;;0.60;0.43;;;;;;;;;;5038375;28;20068;-76
2022/01/10 15:12:30;;;;;;;3.28;0.50;;;;;;;;;;5056208;28;20119;-76
2022/01/10 15:15:01;;;;;;;0.68;0.68;;;;;;;;;;5056070;28;20064;-76